Time;durP1;ratioP1;P1;durP2;ratioP2;P2;SDS_P1;SDS_P2;PMS_P1;PMS_P2;Temp;Humidity;BMP_temperature;BMP_pressure;BME280_temperature;BME280_humidity;BME280_pressure;Samples;Min_cycle;Max_cycle;Signal;HPM_P1;HPM_P2
2023/04/27 00:00:44;;;;;;;8.95;4.68;;;;;;;10.93;71.72;98722.97;5070790;28;20135;-61
2023/04/27 00:03:11;;;;;;;7.18;4.40;;;;;;;10.92;71.66;98723.03;5076714;28;20127;-59
2023/04/27 00:05:37;;;;;;;8.55;4.68;;;;;;;10.63;71.57;98683.75;5069177;28;20767;-60
2023/04/27 00:08:04;;;;;;;7.80;4.85;;;;;;;10.86;71.79;98724.19;5071599;28;20036;-60
2023/04/27 00:10:31;;;;;;;10.30;4.07;;;;;;;10.56;71.93;98684.16;5089525;28;20044;-60
2023/04/27 00:12:57;;;;;;;7.78;4.47;;;;;;;10.82;72.08;98729.63;5088178;28;20109;-60
2023/04/27 00:15:23;;;;;;;9.90;4.50;;;;;;;10.81;72.42;98726.19;5088868;28;20044;-61
2023/04/27 00:17:50;;;;;;;13.45;5.40;;;;;;;10.78;72.69;98726.31;5071396;28;20122;-60
2023/04/27 00:20:17;;;;;;;9.65;5.75;;;;;;;10.74;72.52;98726.56;5068696;28;20078;-59
2023/04/27 00:22:44;;;;;;;15.10;6.18;;;;;;;10.69;72.90;98719.00;5071378;28;20036;-60
2023/04/27 00:25:10;;;;;;;15.73;7.95;;;;;;;10.69;72.93;98734.59;5089182;28;20047;-61
2023/04/27 00:27:36;;;;;;;19.45;8.00;;;;;;;10.54;73.47;98706.78;5089107;28;20089;-59
2023/04/27 00:30:03;;;;;;;18.42;7.88;;;;;;;10.71;73.67;98732.78;5088753;28;20051;-61
2023/04/27 00:32:33;;;;;;;6.65;4.07;;;;;;;10.70;73.44;98738.03;5069855;28;20032;-59
2023/04/27 00:34:59;;;;;;;16.80;6.07;;;;;;;10.68;73.56;98740.69;5101700;28;20052;-59
2023/04/27 00:37:26;;;;;;;11.32;5.88;;;;;;;10.69;73.13;98738.94;5070926;28;20074;-62
2023/04/27 00:39:52;;;;;;;12.65;6.05;;;;;;;10.71;73.46;98745.78;5068616;28;20042;-60
2023/04/27 00:42:18;;;;;;;13.75;6.38;;;;;;;10.69;73.65;98744.16;5088618;28;20101;-60
2023/04/27 00:44:45;;;;;;;12.30;5.75;;;;;;;10.68;73.61;98745.91;5088240;28;20063;-60
2023/04/27 00:47:12;;;;;;;9.77;4.90;;;;;;;10.52;73.25;98724.22;5086744;28;20039;-59
2023/04/27 00:49:39;;;;;;;11.98;5.50;;;;;;;10.53;72.67;98716.31;5069807;28;20040;-60
2023/04/27 00:52:05;;;;;;;9.80;5.05;;;;;;;10.43;72.82;98703.84;5066362;28;20459;-60
2023/04/27 00:54:31;;;;;;;7.70;4.55;;;;;;;10.74;72.96;98744.75;5052998;28;20066;-60
2023/04/27 00:56:58;;;;;;;5.18;3.63;;;;;;;10.79;72.33;98747.97;5069740;28;20044;-60
2023/04/27 00:59:24;;;;;;;8.20;4.13;;;;;;;10.83;71.40;98741.72;5052700;28;20040;-62
2023/04/27 01:01:52;;;;;;;9.90;4.72;;;;;;;10.77;71.60;98747.22;5103740;28;20043;-61
2023/04/27 01:04:18;;;;;;;10.70;4.70;;;;;;;10.72;72.45;98750.06;5050862;28;20040;-60
2023/04/27 01:06:45;;;;;;;11.23;5.00;;;;;;;10.68;72.46;98755.50;5070207;28;20058;-59
2023/04/27 01:09:12;;;;;;;8.38;5.32;;;;;;;10.59;72.86;98746.38;5087958;28;20042;-61
2023/04/27 01:11:38;;;;;;;8.20;4.50;;;;;;;10.33;73.25;98711.28;5087298;28;20067;-61
2023/04/27 01:14:06;;;;;;;8.63;4.47;;;;;;;10.59;73.22;98760.22;5103755;28;20043;-61
2023/04/27 01:16:34;;;;;;;7.30;4.43;;;;;;;10.62;72.80;98748.84;5070116;28;20070;-60
2023/04/27 01:19:01;;;;;;;9.82;4.80;;;;;;;10.63;72.67;98751.34;5086590;28;20088;-59
2023/04/27 01:21:27;;;;;;;7.93;4.90;;;;;;;10.59;73.12;98747.22;5088110;28;20036;-60
2023/04/27 01:23:53;;;;;;;10.77;5.30;;;;;;;10.42;73.49;98718.59;5088220;28;20487;-60
2023/04/27 01:26:20;;;;;;;7.00;4.70;;;;;;;10.36;73.80;98710.28;5092586;28;20079;-59
2023/04/27 01:28:48;;;;;;;13.05;5.20;;;;;;;10.36;74.42;98712.88;5072427;28;20044;-60
2023/04/27 01:31:14;;;;;;;8.73;5.30;;;;;;;10.44;75.16;98734.13;5103752;28;20036;-59
2023/04/27 01:33:41;;;;;;;9.27;5.22;;;;;;;10.39;75.05;98742.16;5068376;28;20451;-58
2023/04/27 01:36:08;;;;;;;8.00;5.25;;;;;;;10.32;75.33;98745.09;5069874;28;20122;-60
2023/04/27 01:38:35;;;;;;;12.18;5.45;;;;;;;10.11;75.85;98724.41;5069506;28;20047;-60
2023/04/27 01:41:08;;;;;;;8.30;4.85;;;;;;;10.22;76.30;98749.91;5102639;28;20070;-59
2023/04/27 01:43:38;;;;;;;9.68;5.28;;;;;;;10.19;76.08;98760.47;5069980;28;20044;-59
2023/04/27 01:46:14;;;;;;;11.63;5.95;;;;;;;9.99;76.50;98725.00;5103450;28;20060;-59
2023/04/27 01:48:40;;;;;;;7.05;5.25;;;;;;;10.13;76.69;98739.94;5087445;28;20048;-59
2023/04/27 01:51:07;;;;;;;7.25;5.15;;;;;;;10.05;76.48;98740.28;5068807;28;20144;-60
2023/04/27 01:53:33;;;;;;;8.88;5.60;;;;;;;10.05;76.75;98734.25;5069776;28;20522;-59
2023/04/27 01:55:59;;;;;;;8.68;5.25;;;;;;;10.17;77.03;98755.31;5069732;28;20055;-60
2023/04/27 01:58:26;;;;;;;7.63;5.07;;;;;;;10.18;77.26;98749.22;5103072;28;20090;-60
2023/04/27 02:00:52;;;;;;;8.20;5.22;;;;;;;10.23;77.60;98754.19;5085724;28;20066;-61
2023/04/27 02:03:19;;;;;;;8.35;5.18;;;;;;;10.22;77.82;98749.06;5103290;28;20036;-60
2023/04/27 02:05:46;;;;;;;9.10;5.47;;;;;;;10.20;78.11;98747.38;5085629;28;20024;-59
2023/04/27 02:08:13;;;;;;;10.05;5.07;;;;;;;10.23;78.44;98753.34;5070422;28;20066;-59
2023/04/27 02:10:39;;;;;;;13.82;6.28;;;;;;;10.07;78.62;98733.28;5090608;28;20113;-60
2023/04/27 02:13:05;;;;;;;11.73;5.95;;;;;;;10.15;78.76;98764.91;5050932;28;20133;-60
2023/04/27 02:15:32;;;;;;;9.63;5.72;;;;;;;10.10;79.08;98768.66;5089535;28;20036;-60
2023/04/27 02:17:59;;;;;;;12.35;6.25;;;;;;;10.06;79.36;98767.94;5065979;28;20046;-60
2023/04/27 02:20:25;;;;;;;8.05;5.95;;;;;;;10.10;79.09;98772.06;5086073;28;20040;-61
2023/04/27 02:22:53;;;;;;;10.55;5.78;;;;;;;10.12;79.73;98774.59;5035156;28;20048;-60
2023/04/27 02:25:19;;;;;;;10.63;5.55;;;;;;;10.15;79.61;98777.06;5072803;28;20048;-61
2023/04/27 02:27:46;;;;;;;12.70;5.93;;;;;;;10.15;79.93;98779.66;5061176;28;20043;-61
2023/04/27 02:30:14;;;;;;;9.60;6.05;;;;;;;10.15;80.01;98780.47;5063018;28;20338;-59
2023/04/27 02:32:40;;;;;;;14.20;7.03;;;;;;;10.15;79.98;98780.47;5055810;28;20051;-59
2023/04/27 02:35:07;;;;;;;11.85;7.00;;;;;;;10.15;79.84;98785.69;5105250;28;20039;-59
2023/04/27 02:37:33;;;;;;;10.65;6.18;;;;;;;10.14;80.22;98799.59;5073065;28;20097;-59
2023/04/27 02:39:59;;;;;;;7.65;5.68;;;;;;;10.13;80.54;98794.47;5072590;28;20193;-60
2023/04/27 02:42:27;;;;;;;10.40;6.32;;;;;;;10.12;80.64;98800.56;5088711;28;20031;-59
2023/04/27 02:44:53;;;;;;;11.38;5.75;;;;;;;10.05;80.54;98784.41;5051140;28;20570;-60
2023/04/27 02:47:19;;;;;;;14.68;5.95;;;;;;;10.16;80.51;98802.13;5050962;28;20515;-58
2023/04/27 02:49:45;;;;;;;11.30;6.75;;;;;;;10.19;80.34;98794.22;5071914;28;20093;-60
2023/04/27 02:52:11;;;;;;;11.73;6.10;;;;;;;10.10;80.90;98779.03;5069316;28;20422;-60
2023/04/27 02:54:38;;;;;;;12.90;6.32;;;;;;;10.30;80.82;98798.91;5089335;28;20036;-60
2023/04/27 02:57:04;;;;;;;12.05;6.28;;;;;;;10.34;81.28;98803.88;5089829;28;20065;-60
2023/04/27 02:59:30;;;;;;;13.23;6.47;;;;;;;10.34;81.65;98803.88;5070985;28;20043;-60
2023/04/27 03:01:56;;;;;;;11.27;6.05;;;;;;;10.39;81.73;98801.06;5087396;28;20077;-60
2023/04/27 03:04:22;;;;;;;9.77;6.72;;;;;;;10.39;82.23;98801.06;5089099;28;20056;-61
2023/04/27 03:06:48;;;;;;;12.38;7.43;;;;;;;10.33;81.70;98794.41;5090231;28;20050;-60
2023/04/27 03:09:14;;;;;;;16.33;7.38;;;;;;;10.49;81.54;98805.75;5086880;28;20539;-60
2023/04/27 03:11:40;;;;;;;10.98;6.90;;;;;;;10.54;81.37;98811.56;5088446;28;20160;-58
2023/04/27 03:14:07;;;;;;;10.88;7.00;;;;;;;10.51;80.83;98803.09;5088895;28;20097;-60
2023/04/27 03:16:34;;;;;;;16.00;7.75;;;;;;;10.63;81.37;98818.06;5072352;28;20035;-60
2023/04/27 03:19:00;;;;;;;12.25;6.53;;;;;;;10.68;81.25;98825.66;5071553;28;20077;-60
2023/04/27 03:21:27;;;;;;;11.75;7.05;;;;;;;10.73;80.77;98824.50;5104543;28;20519;-59
2023/04/27 03:23:54;;;;;;;12.38;7.15;;;;;;;10.76;80.87;98824.38;5072282;28;20568;-60
2023/04/27 03:26:22;;;;;;;19.52;7.70;;;;;;;10.84;80.92;98823.97;5072312;28;20047;-61
2023/04/27 03:28:49;;;;;;;13.95;7.03;;;;;;;10.89;80.53;98824.59;5055361;28;20040;-60
2023/04/27 03:31:15;;;;;;;9.95;6.85;;;;;;;10.95;80.40;98819.09;5089538;28;20044;-59
2023/04/27 03:33:41;;;;;;;18.42;8.50;;;;;;;11.03;80.76;98824.78;5038665;28;20045;-59
2023/04/27 03:36:09;;;;;;;20.58;8.50;;;;;;;11.09;81.24;98826.22;5070278;28;20071;-61
2023/04/27 03:38:36;;;;;;;23.02;9.43;;;;;;;10.98;81.08;98805.97;5071727;28;20134;-59
2023/04/27 03:41:03;;;;;;;19.42;8.73;;;;;;;11.17;81.37;98827.50;5053009;28;20093;-59
2023/04/27 03:43:29;;;;;;;20.35;8.70;;;;;;;11.21;80.99;98829.03;5088722;28;20113;-59
2023/04/27 03:45:55;;;;;;;19.75;8.52;;;;;;;11.18;81.34;98829.22;5085063;28;20048;-59
2023/04/27 03:48:21;;;;;;;22.95;9.35;;;;;;;11.35;81.35;98854.38;5068403;28;20107;-60
2023/04/27 03:50:49;;;;;;;21.27;9.73;;;;;;;11.39;81.06;98846.34;5050738;28;20071;-59
2023/04/27 03:53:15;;;;;;;19.27;9.60;;;;;;;11.40;80.69;98842.81;5085130;28;20059;-59
2023/04/27 03:55:42;;;;;;;19.00;9.40;;;;;;;11.56;80.13;98852.44;5101975;28;20041;-60
2023/04/27 03:58:10;;;;;;;16.67;8.85;;;;;;;11.63;80.03;98852.03;5047718;28;20037;-60
2023/04/27 04:00:37;;;;;;;21.35;9.52;;;;;;;11.71;79.60;98849.88;5053800;28;20093;-60
2023/04/27 04:03:04;;;;;;;20.10;9.38;;;;;;;11.82;79.18;98852.81;5068062;28;20036;-59
2023/04/27 04:05:32;;;;;;;;;;;;;;;11.91;78.47;98855.81;5068104;28;20082;-61
2023/04/27 04:07:58;;;;;;;22.70;9.95;;;;;;;11.82;77.62;98842.38;5084735;28;19931;-60
2023/04/27 04:10:27;;;;;;;19.50;10.15;;;;;;;11.89;77.46;98835.91;5081747;28;20040;-59
2023/04/27 04:12:53;;;;;;;18.65;9.32;;;;;;;12.08;77.03;98861.84;5068024;28;20498;-61
2023/04/27 04:15:20;;;;;;;16.45;9.75;;;;;;;12.18;76.74;98865.63;5050517;28;20497;-62
2023/04/27 04:17:48;;;;;;;19.80;9.70;;;;;;;12.17;76.72;98848.31;5050543;28;20071;-60
2023/04/27 04:20:15;;;;;;;22.23;10.45;;;;;;;12.31;76.64;98853.59;5067881;28;20436;-59
2023/04/27 04:22:42;;;;;;;23.05;10.20;;;;;;;12.43;76.62;98872.09;5066553;28;20473;-61
2023/04/27 04:25:08;;;;;;;19.73;9.35;;;;;;;12.46;76.32;98864.94;5067446;28;20086;-61
2023/04/27 04:27:34;;;;;;;18.67;8.73;;;;;;;12.61;74.94;98871.91;5067711;28;20105;-59
2023/04/27 04:30:03;;;;;;;14.30;7.82;;;;;;;12.71;73.36;98873.13;5067023;28;20127;-59
2023/04/27 04:32:32;;;;;;;15.90;8.32;;;;;;;12.71;71.06;98862.69;5099545;28;20131;-59
2023/04/27 04:35:00;;;;;;;15.95;7.25;;;;;;;12.95;69.95;98875.25;5067181;28;20339;-60
2023/04/27 04:37:33;;;;;;;11.57;6.00;;;;;;;12.92;68.81;98859.78;5099596;28;20044;-59
2023/04/27 04:39:59;;;;;;;11.05;6.57;;;;;;;13.02;68.63;98853.97;5066953;28;20436;-58
2023/04/27 04:42:26;;;;;;;11.95;7.10;;;;;;;13.24;67.66;98879.66;5030091;28;20048;-59
2023/04/27 04:44:52;;;;;;;16.55;6.22;;;;;;;13.21;67.42;98850.31;5081707;28;20055;-59
2023/04/27 04:47:18;;;;;;;11.38;6.45;;;;;;;13.44;66.68;98874.16;5077249;28;20609;-58
2023/04/27 04:49:45;;;;;;;9.75;6.22;;;;;;;13.54;65.72;98870.06;5074367;28;20046;-61
2023/04/27 04:52:11;;;;;;;12.15;6.43;;;;;;;13.62;65.00;98872.19;5071514;28;20042;-58
2023/04/27 04:54:37;;;;;;;16.35;6.03;;;;;;;13.76;64.80;98876.63;5075609;28;20067;-59
2023/04/27 04:57:04;;;;;;;10.20;6.15;;;;;;;13.74;64.34;98847.97;5072249;28;20078;-60
2023/04/27 04:59:32;;;;;;;12.13;6.13;;;;;;;13.98;64.07;98872.59;5062847;28;20058;-60
2023/04/27 05:01:58;;;;;;;10.87;5.73;;;;;;;14.09;64.01;98871.09;5049634;28;20163;-61
2023/04/27 05:04:25;;;;;;;13.05;5.47;;;;;;;14.18;63.65;98879.22;5068200;28;20436;-61
2023/04/27 05:06:51;;;;;;;11.98;5.78;;;;;;;14.29;62.89;98871.53;5067596;28;20063;-60
2023/04/27 05:09:18;;;;;;;14.52;6.03;;;;;;;14.41;61.97;98870.81;5100610;28;20063;-64
2023/04/27 05:11:44;;;;;;;11.50;5.72;;;;;;;14.38;61.36;98849.25;5099756;28;20463;-60
2023/04/27 05:14:10;;;;;;;12.23;6.53;;;;;;;14.66;60.53;98869.25;5066958;28;20090;-60
2023/04/27 05:16:36;;;;;;;10.35;5.18;;;;;;;14.79;59.99;98884.06;5067187;28;20064;-62
2023/04/27 05:19:04;;;;;;;7.25;4.65;;;;;;;14.91;59.15;98881.63;5045280;28;20041;-63
2023/04/27 05:21:30;;;;;;;9.70;4.72;;;;;;;14.88;58.49;98856.47;5049553;28;20040;-63
2023/04/27 05:23:56;;;;;;;13.50;5.00;;;;;;;15.17;58.19;98876.38;5066973;28;20037;-61
2023/04/27 05:26:22;;;;;;;9.75;5.07;;;;;;;15.32;57.56;98887.59;5100313;28;20098;-63
2023/04/27 05:28:48;;;;;;;11.13;4.93;;;;;;;15.42;56.54;98891.28;5065655;28;20562;-62
2023/04/27 05:31:14;;;;;;;9.90;5.25;;;;;;;15.37;56.69;98848.00;5049748;28;20043;-62
2023/04/27 05:33:40;;;;;;;12.05;6.30;;;;;;;15.69;55.63;98888.63;5066049;28;20516;-58
2023/04/27 05:36:07;;;;;;;13.95;6.57;;;;;;;15.79;55.09;98875.72;5082785;28;20828;-62
2023/04/27 05:38:34;;;;;;;13.00;6.55;;;;;;;15.91;54.31;98882.75;5067555;28;20665;-61
2023/04/27 05:41:00;;;;;;;11.65;6.97;;;;;;;16.06;53.93;98885.16;5082789;28;20039;-63
2023/04/27 05:43:26;;;;;;;13.50;7.40;;;;;;;16.15;53.73;98878.44;5067270;28;20833;-62
2023/04/27 05:45:52;;;;;;;16.50;7.38;;;;;;;16.27;52.88;98876.72;5065931;28;20052;-62
2023/04/27 05:48:18;;;;;;;16.88;7.07;;;;;;;16.38;52.30;98884.69;5066392;28;20044;-61
2023/04/27 05:50:44;;;;;;;16.13;6.85;;;;;;;16.49;51.83;98887.34;5066491;28;20059;-61
2023/04/27 05:53:10;;;;;;;12.88;7.20;;;;;;;16.43;51.68;98843.22;5049302;28;20089;-62
2023/04/27 05:55:37;;;;;;;16.17;7.60;;;;;;;16.74;51.50;98884.72;5100305;28;20610;-61
2023/04/27 05:58:03;;;;;;;15.73;7.63;;;;;;;16.88;51.33;98886.31;5050070;28;20102;-60
2023/04/27 06:00:30;;;;;;;16.30;7.80;;;;;;;16.87;50.94;98889.91;5074964;28;20040;-62
2023/04/27 06:02:56;;;;;;;16.05;8.02;;;;;;;17.02;50.89;98874.81;5079476;28;20044;-64
2023/04/27 06:05:22;;;;;;;15.63;7.78;;;;;;;17.21;50.27;98886.50;5065950;28;20037;-60
2023/04/27 06:07:48;;;;;;;20.05;9.05;;;;;;;17.45;49.95;98885.59;5076154;28;20778;-57
2023/04/27 06:10:15;;;;;;;23.45;7.68;;;;;;;17.57;49.53;98884.69;5074611;28;20123;-59
2023/04/27 06:12:41;;;;;;;19.20;8.00;;;;;;;17.65;48.97;98877.06;5073200;28;20166;-56
2023/04/27 06:15:08;;;;;;;13.43;8.70;;;;;;;17.80;48.30;98889.03;5077274;28;20040;-60
2023/04/27 06:17:35;;;;;;;15.38;7.47;;;;;;;18.46;47.64;98890.03;5075909;28;20542;-58
2023/04/27 06:20:04;;;;;;;17.48;6.97;;;;;;;19.25;45.40;98870.44;5087853;28;20048;-60
2023/04/27 06:22:30;;;;;;;13.85;7.05;;;;;;;20.39;44.03;98873.91;5075089;28;20125;-58
2023/04/27 06:24:56;;;;;;;8.77;5.10;;;;;;;21.49;41.53;98895.63;5076994;28;20032;-58
2023/04/27 06:27:22;;;;;;;7.85;3.83;;;;;;;22.31;39.81;98884.44;5076518;28;20431;-57
2023/04/27 06:29:48;;;;;;;7.93;3.28;;;;;;;22.83;37.21;98900.63;5058235;28;20085;-60
2023/04/27 06:32:14;;;;;;;6.13;3.30;;;;;;;23.10;35.87;98903.25;5077958;28;20070;-59
2023/04/27 06:34:40;;;;;;;8.82;3.00;;;;;;;24.24;34.71;98897.03;5073312;28;20082;-56
2023/04/27 06:37:07;;;;;;;7.95;3.83;;;;;;;24.71;33.24;98897.38;5075691;28;20051;-61
2023/04/27 06:39:33;;;;;;;7.28;3.83;;;;;;;25.43;32.04;98910.03;5073625;28;20485;-60
2023/04/27 06:41:59;;;;;;;11.30;3.85;;;;;;;25.99;31.30;98905.69;5074229;28;20048;-59
2023/04/27 06:44:25;;;;;;;5.88;3.60;;;;;;;26.69;30.04;98901.34;5079369;28;20418;-58
2023/04/27 06:46:51;;;;;;;8.13;4.32;;;;;;;26.94;28.71;98905.56;5100038;28;20048;-58
2023/04/27 06:49:17;;;;;;;7.35;3.95;;;;;;;26.69;29.44;98911.19;5066225;28;20572;-57
2023/04/27 06:51:43;;;;;;;11.45;4.80;;;;;;;27.43;28.24;98902.53;5076628;28;20040;-57
2023/04/27 06:54:08;;;;;;;11.68;4.63;;;;;;;28.15;27.68;98909.13;5092785;28;20076;-56
2023/04/27 06:56:34;;;;;;;11.45;4.68;;;;;;;29.05;26.43;98901.66;5106594;28;20574;-60
2023/04/27 06:59:00;;;;;;;12.27;4.55;;;;;;;29.55;25.91;98907.97;5090064;28;20036;-60
2023/04/27 07:01:26;;;;;;;7.97;4.63;;;;;;;30.32;24.73;98894.50;5090388;28;20040;-57
2023/04/27 07:03:52;;;;;;;8.93;4.80;;;;;;;30.20;24.19;98874.66;5109424;28;20092;-61
2023/04/27 07:06:18;;;;;;;8.40;4.28;;;;;;;30.20;24.13;98904.97;5092486;28;20158;-59
2023/04/27 07:08:44;;;;;;;9.65;4.75;;;;;;;30.40;23.96;98909.63;5080607;28;20040;-59
2023/04/27 07:11:11;;;;;;;13.38;4.30;;;;;;;30.79;23.40;98895.56;5072541;28;20040;-55
2023/04/27 07:13:37;;;;;;;5.95;4.00;;;;;;;31.90;22.06;98905.72;5072014;28;20044;-58
2023/04/27 07:16:03;;;;;;;7.15;3.80;;;;;;;31.76;21.58;98904.09;5090259;28;20047;-58
2023/04/27 07:18:29;;;;;;;10.75;4.20;;;;;;;31.76;21.53;98902.22;5090795;28;20055;-57
2023/04/27 07:20:56;;;;;;;8.27;3.75;;;;;;;31.78;21.38;98897.44;5078293;28;20066;-59
2023/04/27 07:23:23;;;;;;;6.32;4.05;;;;;;;31.65;21.87;98899.31;5069612;28;20032;-60
2023/04/27 07:25:49;;;;;;;9.77;3.90;;;;;;;33.09;21.24;98904.34;5072168;28;20043;-58
2023/04/27 07:28:15;;;;;;;5.60;3.67;;;;;;;33.54;19.54;98896.22;5072374;28;20039;-61
2023/04/27 07:30:41;;;;;;;7.13;4.00;;;;;;;32.32;20.00;98912.50;5101594;28;20426;-56
2023/04/27 07:33:08;;;;;;;7.53;3.50;;;;;;;31.36;20.81;98890.59;5109104;28;20032;-59
2023/04/27 07:35:35;;;;;;;8.73;3.28;;;;;;;31.76;20.71;98904.91;5098176;28;20066;-56
2023/04/27 07:38:02;;;;;;;5.53;4.00;;;;;;;32.08;20.46;98905.94;5071557;28;20043;-60
2023/04/27 07:40:29;;;;;;;10.07;4.43;;;;;;;33.14;19.81;98901.84;5088278;28;20051;-59
2023/04/27 07:42:57;;;;;;;5.82;3.47;;;;;;;33.90;18.67;98903.63;5089870;28;20043;-57
2023/04/27 07:45:30;;;;;;;10.60;4.10;;;;;;;32.64;19.43;98900.84;5070867;28;20143;-60
2023/04/27 07:47:59;;;;;;;8.18;3.83;;;;;;;32.74;19.50;98916.56;5071560;28;20060;-59
2023/04/27 07:50:28;;;;;;;9.80;4.20;;;;;;;32.18;20.21;98906.34;5105479;28;20522;-56
2023/04/27 07:52:55;;;;;;;8.65;4.00;;;;;;;32.46;19.81;98907.91;5105412;28;20044;-56
2023/04/27 07:55:22;;;;;;;9.65;4.57;;;;;;;32.31;20.21;98910.84;5089100;28;20036;-58
2023/04/27 07:57:57;;;;;;;9.27;4.32;;;;;;;32.03;20.18;98913.78;5071041;28;20135;-58
2023/04/27 08:00:26;;;;;;;8.48;4.10;;;;;;;33.27;19.68;98913.63;5070393;28;20055;-59
2023/04/27 08:02:53;;;;;;;7.75;3.75;;;;;;;32.61;19.46;98911.16;5089001;28;20068;-58
2023/04/27 08:05:19;;;;;;;8.68;4.10;;;;;;;32.26;20.12;98900.72;5084654;28;20127;-56
2023/04/27 08:07:45;;;;;;;8.60;3.90;;;;;;;34.07;19.00;98920.06;5077841;28;20100;-59
2023/04/27 08:10:12;;;;;;;8.23;3.90;;;;;;;34.28;18.50;98922.38;5088337;28;20508;-57
2023/04/27 08:12:38;;;;;;;7.85;4.00;;;;;;;34.47;18.46;98917.78;5088931;28;20044;-60
2023/04/27 08:15:05;;;;;;;6.57;3.92;;;;;;;35.48;17.62;98918.78;5070028;28;20051;-60
2023/04/27 08:17:32;;;;;;;;;;;;;;;35.56;17.27;98920.31;5071597;28;20043;-55
2023/04/27 08:19:58;;;;;;;9.80;4.00;;;;;;;34.64;17.84;98924.25;5089341;28;19916;-59
2023/04/27 08:22:24;;;;;;;4.78;3.40;;;;;;;34.98;17.35;98917.41;5070214;28;20036;-58
2023/04/27 08:24:50;;;;;;;6.90;3.47;;;;;;;35.38;17.23;98888.78;5088272;28;20047;-57
2023/04/27 08:27:16;;;;;;;8.70;3.95;;;;;;;36.53;16.42;98906.13;5070558;28;20568;-62
2023/04/27 08:29:46;;;;;;;7.53;3.30;;;;;;;37.75;15.83;98908.47;5069972;28;20040;-60
2023/04/27 08:32:13;;;;;;;5.40;4.00;;;;;;;38.04;15.69;98912.78;5067756;28;20040;-60
2023/04/27 08:34:38;;;;;;;6.40;4.35;;;;;;;36.42;16.02;98893.47;5094760;28;20082;-59
2023/04/27 08:37:05;;;;;;;9.38;4.20;;;;;;;35.34;16.52;98901.09;5094346;28;20450;-60
2023/04/27 08:39:31;;;;;;;4.70;4.20;;;;;;;36.15;16.09;98894.19;5073614;28;20062;-58
2023/04/27 08:41:57;;;;;;;10.57;4.60;;;;;;;36.74;16.04;98902.00;5049867;28;20531;-61
2023/04/27 08:44:23;;;;;;;5.38;4.32;;;;;;;37.44;15.70;98904.41;5056758;28;20514;-58
2023/04/27 08:46:49;;;;;;;6.45;4.57;;;;;;;37.72;15.35;98912.53;5100509;28;20039;-59
2023/04/27 08:49:16;;;;;;;11.52;4.40;;;;;;;36.35;16.20;98900.06;5063192;28;20058;-61
2023/04/27 08:51:42;;;;;;;6.32;4.32;;;;;;;36.80;15.87;98902.91;5071271;28;20036;-58
2023/04/27 08:54:08;;;;;;;13.23;4.95;;;;;;;37.84;15.14;98906.19;5071731;28;20069;-60
2023/04/27 08:56:34;;;;;;;6.80;4.72;;;;;;;39.17;15.04;98903.09;5066510;28;20072;-59
2023/04/27 08:59:03;;;;;;;9.15;4.10;;;;;;;38.91;14.17;98902.00;5080025;28;20035;-59
2023/04/27 09:01:31;;;;;;;4.13;3.53;;;;;;;37.95;14.88;98903.34;5078261;28;20036;-60
2023/04/27 09:03:58;;;;;;;5.70;3.92;;;;;;;38.33;14.39;98905.28;5093386;28;20036;-51
2023/04/27 09:06:31;;;;;;;6.65;4.05;;;;;;;38.26;14.19;98891.09;5096725;28;20047;-49
2023/04/27 09:08:58;;;;;;;6.15;3.83;;;;;;;36.78;15.21;98867.13;5083900;28;20567;-53
2023/04/27 09:11:32;;;;;;;6.55;4.30;;;;;;;36.99;14.93;98877.28;5085452;28;20043;-51
2023/04/27 09:13:59;;;;;;;7.03;3.85;;;;;;;37.71;14.62;98899.19;5068161;28;20081;-52
2023/04/27 09:16:28;;;;;;;5.78;4.00;;;;;;;37.69;15.02;98894.00;5070439;28;20058;-52
2023/04/27 09:18:55;;;;;;;6.25;3.90;;;;;;;37.90;15.03;98902.44;5085149;28;20135;-53
2023/04/27 09:21:26;;;;;;;4.82;4.28;;;;;;;36.24;16.13;98893.59;5088065;28;20051;-49
2023/04/27 09:23:54;;;;;;;5.22;4.63;;;;;;;36.53;16.19;98880.13;5073532;28;20044;-53
2023/04/27 09:26:22;;;;;;;7.25;4.85;;;;;;;37.43;15.90;98891.91;5082232;28;20044;-52
2023/04/27 09:28:50;;;;;;;7.38;4.88;;;;;;;37.02;16.34;98894.94;5092678;28;20077;-51
2023/04/27 09:31:17;;;;;;;6.28;4.88;;;;;;;36.26;17.36;98894.19;5046448;28;20036;-47
2023/04/27 09:33:44;;;;;;;9.63;5.07;;;;;;;36.10;17.11;98894.88;5100714;28;20039;-50
2023/04/27 09:36:11;;;;;;;11.20;5.07;;;;;;;36.10;17.37;98867.81;5091167;28;20040;-49
2023/04/27 09:38:37;;;;;;;6.57;4.40;;;;;;;37.10;16.64;98871.00;5060755;28;20046;-50
2023/04/27 09:41:03;;;;;;;8.90;4.82;;;;;;;37.27;16.30;98890.81;5074578;28;20427;-48
2023/04/27 09:43:30;;;;;;;6.68;4.35;;;;;;;37.15;16.57;98894.69;5086400;28;20512;-49
2023/04/27 09:45:57;;;;;;;5.47;3.90;;;;;;;36.04;16.62;98891.22;5069564;28;20048;-50
2023/04/27 09:48:24;;;;;;;4.10;3.72;;;;;;;35.46;17.21;98885.75;5073240;28;20078;-52
2023/04/27 09:50:51;;;;;;;6.47;3.72;;;;;;;35.57;17.12;98895.75;5050807;28;20080;-50
2023/04/27 09:53:50;;;;;;;5.65;3.90;;;;;;;36.10;16.56;98884.88;5079733;28;20050;-53
2023/04/27 09:56:39;;;;;;;6.50;4.22;;;;;;;36.04;16.56;98883.09;5043900;28;20554;-49
2023/04/27 09:59:24;;;;;;;5.43;4.93;;;;;;;36.99;16.29;98885.41;5094338;28;20404;-49
2023/04/27 10:01:59;;;;;;;6.45;5.20;;;;;;;36.25;16.97;98875.47;5083622;28;20078;-48
2023/04/27 10:05:00;;;;;;;4.85;4.32;;;;;;;37.20;16.38;98889.34;5056032;28;20059;-46
2023/04/27 10:07:27;;;;;;;6.72;4.57;;;;;;;37.32;16.10;98884.66;5069889;28;20039;-48
2023/04/27 10:09:52;;;;;;;7.97;4.63;;;;;;;37.98;15.56;98891.19;5063408;28;20120;-49
2023/04/27 10:12:20;;;;;;;6.60;4.50;;;;;;;37.18;15.90;98881.44;5074238;28;20180;-52
2023/04/27 10:14:50;;;;;;;;;;;;;;;36.96;16.06;98882.34;5076698;28;20056;-51
2023/04/27 10:17:16;;;;;;;4.28;3.88;;;;;;;37.46;15.41;98890.59;5075763;28;19919;-49
2023/04/27 10:19:57;;;;;;;5.50;3.58;;;;;;;36.90;15.86;98882.25;5044074;28;20412;-46
2023/04/27 10:22:25;;;;;;;5.85;3.70;;;;;;;35.47;16.87;98878.47;5086148;28;20056;-46
2023/04/27 10:24:51;;;;;;;5.05;3.90;;;;;;;32.92;18.86;98872.78;5102001;28;20177;-50
2023/04/27 10:27:18;;;;;;;9.23;3.67;;;;;;;30.57;21.03;98876.09;5063203;28;20048;-49
2023/04/27 10:29:46;;;;;;;5.32;4.05;;;;;;;29.54;22.12;98878.66;5079699;28;20040;-48
2023/04/27 10:32:18;;;;;;;6.55;4.05;;;;;;;27.98;24.12;98856.00;5068984;28;20154;-50
2023/04/27 10:34:46;;;;;;;7.65;4.03;;;;;;;27.40;25.15;98876.22;5088622;28;20515;-51
2023/04/27 10:37:13;;;;;;;5.22;4.18;;;;;;;29.69;22.83;98885.59;5104911;27;20050;-48
2023/04/27 10:39:40;;;;;;;6.35;4.15;;;;;;;30.68;21.90;98873.66;5055717;28;20047;-54
2023/04/27 10:42:07;;;;;;;5.78;4.30;;;;;;;32.12;20.77;98877.59;5093323;28;20534;-53
2023/04/27 10:44:34;;;;;;;6.03;4.45;;;;;;;33.39;19.73;98858.81;5087485;28;20044;-52
2023/04/27 10:47:12;;;;;;;4.57;4.03;;;;;;;34.11;19.24;98878.91;5079318;28;20077;-52
2023/04/27 10:49:38;;;;;;;4.15;3.85;;;;;;;32.21;20.65;98849.41;5066785;28;20036;-49
2023/04/27 10:52:05;;;;;;;9.27;4.43;;;;;;;30.39;22.57;98867.72;5079163;28;20051;-46
2023/04/27 10:54:32;;;;;;;6.13;4.28;;;;;;;28.49;24.46;98856.91;5064464;28;20094;-48
2023/04/27 10:57:05;;;;;;;8.05;4.38;;;;;;;27.99;25.08;98866.50;5090223;28;20051;-50
2023/04/27 10:59:32;;;;;;;12.38;4.05;;;;;;;26.98;26.26;98877.53;5089476;28;20039;-49
2023/04/27 11:01:57;;;;;;;6.75;4.63;;;;;;;26.26;27.75;98880.53;5088959;28;20052;-52
2023/04/27 11:04:34;;;;;;;5.20;3.95;;;;;;;26.27;27.28;98875.03;5082545;28;20039;-51
2023/04/27 11:07:03;;;;;;;4.85;4.03;;;;;;;26.61;26.94;98876.53;5091942;28;20067;-47
2023/04/27 11:09:29;;;;;;;4.85;3.92;;;;;;;27.24;26.28;98857.66;5075293;28;20489;-46
2023/04/27 11:11:56;;;;;;;7.32;4.10;;;;;;;27.88;26.02;98890.19;5076219;28;20040;-51
2023/04/27 11:14:22;;;;;;;8.30;3.83;;;;;;;27.36;26.50;98890.94;5068913;28;20082;-50
2023/04/27 11:16:48;;;;;;;9.63;3.30;;;;;;;27.93;25.25;98883.28;5087123;28;20067;-50
2023/04/27 11:19:14;;;;;;;4.97;3.08;;;;;;;28.05;24.72;98876.47;5089661;28;20047;-52
2023/04/27 11:21:41;;;;;;;5.18;2.72;;;;;;;27.97;24.34;98897.94;5086645;28;20044;-48
2023/04/27 11:24:08;;;;;;;3.47;3.08;;;;;;;26.94;25.12;98892.22;5061114;28;20074;-47
2023/04/27 11:26:35;;;;;;;5.00;2.63;;;;;;;26.20;25.93;98894.50;5067824;28;20068;-49
2023/04/27 11:29:12;;;;;;;5.68;3.22;;;;;;;25.80;26.77;98898.91;5079625;28;20285;-45